Time;durP1;ratioP1;P1;durP2;ratioP2;P2;SDS_P1;SDS_P2;PMS_P1;PMS_P2;Temp;Humidity;BMP_temperature;BMP_pressure;BME280_temperature;BME280_humidity;BME280_pressure;Samples;Min_cycle;Max_cycle;Signal;HPM_P1;HPM_P2
2022/08/05 00:01:43;;;;;;;0.52;0.40;;;;;;;;;;5095189;28;20056;-77
2022/08/05 00:04:08;;;;;;;0.35;0.35;;;;;;;;;;5079671;28;20107;-77
2022/08/05 00:06:34;;;;;;;0.60;0.60;;;;;;;;;;5083399;28;20111;-76
2022/08/05 00:09:03;;;;;;;0.45;0.30;;;;;;;;;;5090876;28;20039;-76
2022/08/05 00:11:28;;;;;;;0.75;0.75;;;;;;;;;;5074255;28;20433;-76
2022/08/05 00:13:54;;;;;;;0.95;0.70;;;;;;;;;;5089595;28;20031;-75
2022/08/05 00:16:19;;;;;;;0.20;0.20;;;;;;;;;;5080586;28;20338;-76
2022/08/05 00:18:46;;;;;;;1.58;1.20;;;;;;;;;;5074219;28;20055;-76
2022/08/05 00:21:13;;;;;;;0.75;0.40;;;;;;;;;;5074411;28;20063;-75
2022/08/05 00:23:39;;;;;;;1.05;0.52;;;;;;;;;;5065447;28;20400;-75
2022/08/05 00:26:07;;;;;;;4.75;0.55;;;;;;;;;;5091414;28;20023;-75
2022/08/05 00:28:38;;;;;;;0.35;0.35;;;;;;;;;;5075664;28;20035;-75
2022/08/05 00:31:04;;;;;;;1.13;1.02;;;;;;;;;;5088159;28;20099;-76
2022/08/05 00:33:29;;;;;;;1.17;0.93;;;;;;;;;;5094833;28;20040;-76
2022/08/05 00:35:57;;;;;;;0.85;0.47;;;;;;;;;;5077996;28;20040;-76
2022/08/05 00:38:25;;;;;;;0.38;0.38;;;;;;;;;;5075916;28;20033;-75
2022/08/05 00:40:53;;;;;;;0.80;0.45;;;;;;;;;;5083974;28;20111;-76
2022/08/05 00:43:19;;;;;;;0.85;0.68;;;;;;;;;;5073933;28;20028;-75
2022/08/05 00:45:47;;;;;;;1.13;0.63;;;;;;;;;;5074722;28;20024;-76
2022/08/05 00:48:18;;;;;;;1.00;0.45;;;;;;;;;;5082596;28;20132;-76
2022/08/05 00:50:46;;;;;;;3.50;0.68;;;;;;;;;;5059821;28;20012;-81
2022/08/05 00:53:18;;;;;;;1.30;0.85;;;;;;;;;;5094357;28;20482;-80
2022/08/05 00:55:44;;;;;;;1.15;1.05;;;;;;;;;;5079420;28;20028;-82
2022/08/05 00:58:10;;;;;;;0.57;0.35;;;;;;;;;;5084798;28;20051;-80
2022/08/05 01:00:36;;;;;;;0.77;0.77;;;;;;;;;;5072914;28;20025;-83
2022/08/05 01:03:01;;;;;;;0.30;0.30;;;;;;;;;;5077468;28;20434;-81
2022/08/05 01:05:29;;;;;;;0.82;0.55;;;;;;;;;;5090353;28;20027;-82
2022/08/05 01:07:58;;;;;;;2.22;0.88;;;;;;;;;;5072633;28;20035;-80
2022/08/05 01:10:28;;;;;;;1.40;0.63;;;;;;;;;;5087661;28;20042;-82
2022/08/05 01:12:57;;;;;;;0.60;0.50;;;;;;;;;;5081509;28;20476;-81
2022/08/05 01:15:29;;;;;;;0.85;0.68;;;;;;;;;;5093312;28;20081;-82
2022/08/05 01:18:00;;;;;;;2.17;0.68;;;;;;;;;;5060785;28;20029;-79
2022/08/05 01:20:47;;;;;;;1.92;0.95;;;;;;;;;;5073770;28;20036;-81
2022/08/05 01:23:37;;;;;;;0.57;0.38;;;;;;;;;;5074429;28;20037;-82
2022/08/05 01:26:34;;;;;;;1.00;0.60;;;;;;;;;;5068405;28;20032;-82
2022/08/05 01:29:15;;;;;;;1.02;0.63;;;;;;;;;;5080249;28;20020;-81
2022/08/05 01:31:46;;;;;;;0.95;0.82;;;;;;;;;;5071540;28;20070;-82
2022/08/05 01:34:16;;;;;;;2.38;0.88;;;;;;;;;;5091670;28;20024;-79
2022/08/05 01:36:47;;;;;;;0.47;0.47;;;;;;;;;;5065614;28;20027;-79
2022/08/05 01:39:17;;;;;;;3.35;0.73;;;;;;;;;;5072918;28;20028;-81
2022/08/05 01:41:44;;;;;;;0.60;0.57;;;;;;;;;;5071959;28;20028;-81
2022/08/05 01:44:12;;;;;;;0.88;0.47;;;;;;;;;;5075406;28;20064;-81
2022/08/05 01:46:39;;;;;;;1.17;0.82;;;;;;;;;;5083779;28;20028;-81
2022/08/05 01:49:05;;;;;;;0.57;0.50;;;;;;;;;;5075377;28;20035;-80
2022/08/05 01:51:34;;;;;;;0.57;0.50;;;;;;;;;;5076333;28;20086;-82
2022/08/05 01:54:06;;;;;;;0.93;0.68;;;;;;;;;;5079367;28;20069;-81
2022/08/05 01:56:34;;;;;;;0.40;0.30;;;;;;;;;;5077583;28;20027;-80
2022/08/05 01:59:05;;;;;;;0.40;0.40;;;;;;;;;;5077609;28;20028;-81
2022/08/05 02:01:34;;;;;;;1.05;0.70;;;;;;;;;;5059012;28;20020;-80
2022/08/05 02:04:00;;;;;;;0.52;0.52;;;;;;;;;;5073956;28;20036;-77
2022/08/05 02:06:26;;;;;;;1.77;0.77;;;;;;;;;;5072267;28;20027;-80
2022/08/05 02:08:51;;;;;;;1.25;0.60;;;;;;;;;;5070210;28;20024;-79
2022/08/05 02:11:17;;;;;;;1.27;0.52;;;;;;;;;;5072800;28;20027;-79
2022/08/05 02:13:47;;;;;;;0.98;0.63;;;;;;;;;;5081440;28;20028;-79
2022/08/05 02:16:14;;;;;;;0.60;0.60;;;;;;;;;;5081350;28;20029;-80
2022/08/05 02:18:44;;;;;;;0.65;0.47;;;;;;;;;;5075935;28;20083;-81
2022/08/05 02:21:14;;;;;;;3.10;0.52;;;;;;;;;;5075827;28;20032;-80
2022/08/05 02:23:44;;;;;;;1.00;0.57;;;;;;;;;;5080784;28;20035;-80
2022/08/05 02:26:10;;;;;;;1.75;0.30;;;;;;;;;;5096384;28;20024;-81
2022/08/05 02:28:41;;;;;;;0.73;0.50;;;;;;;;;;5094107;28;20024;-80
2022/08/05 02:31:08;;;;;;;1.00;0.63;;;;;;;;;;5082512;28;20126;-81
2022/08/05 02:33:38;;;;;;;0.30;0.30;;;;;;;;;;5077327;28;20024;-80
2022/08/05 02:36:08;;;;;;;0.90;0.55;;;;;;;;;;5084117;28;20100;-81
2022/08/05 02:38:34;;;;;;;0.52;0.32;;;;;;;;;;5083220;28;20346;-81
2022/08/05 02:41:00;;;;;;;0.35;0.35;;;;;;;;;;5089388;28;20433;-80
2022/08/05 02:43:25;;;;;;;0.60;0.60;;;;;;;;;;5079067;28;20031;-80
2022/08/05 02:45:53;;;;;;;0.40;0.40;;;;;;;;;;5088743;28;20112;-79
2022/08/05 02:48:21;;;;;;;0.50;0.50;;;;;;;;;;5089469;28;20453;-81
2022/08/05 02:50:49;;;;;;;1.65;0.80;;;;;;;;;;5077295;28;20028;-81
2022/08/05 02:53:14;;;;;;;0.43;0.43;;;;;;;;;;5079001;28;20104;-82
2022/08/05 02:55:42;;;;;;;0.10;0.10;;;;;;;;;;5088260;28;20108;-81
2022/08/05 02:58:08;;;;;;;0.47;0.47;;;;;;;;;;5077763;28;20102;-81
2022/08/05 03:00:38;;;;;;;0.65;0.65;;;;;;;;;;5080591;28;20048;-82
2022/08/05 03:03:04;;;;;;;0.70;0.65;;;;;;;;;;5081371;28;20033;-80
2022/08/05 03:05:29;;;;;;;1.33;0.73;;;;;;;;;;5070148;28;20469;-80
2022/08/05 03:07:55;;;;;;;0.98;0.43;;;;;;;;;;5074247;28;20368;-80
2022/08/05 03:10:21;;;;;;;0.90;0.65;;;;;;;;;;5073712;28;20563;-82
2022/08/05 03:12:48;;;;;;;0.82;0.68;;;;;;;;;;5077819;28;20016;-77
2022/08/05 03:15:13;;;;;;;1.10;1.00;;;;;;;;;;5080789;28;20024;-79
2022/08/05 03:17:39;;;;;;;0.65;0.57;;;;;;;;;;5080243;28;20398;-79
2022/08/05 03:20:05;;;;;;;1.17;0.73;;;;;;;;;;5076129;28;20394;-80
2022/08/05 03:22:35;;;;;;;0.57;0.57;;;;;;;;;;5075865;28;20066;-80
2022/08/05 03:25:01;;;;;;;1.30;1.00;;;;;;;;;;5088474;28;20036;-79
2022/08/05 03:27:27;;;;;;;4.82;0.65;;;;;;;;;;5088874;28;20115;-79
2022/08/05 03:29:52;;;;;;;1.10;1.00;;;;;;;;;;5078294;28;20063;-78
2022/08/05 03:32:20;;;;;;;1.02;1.02;;;;;;;;;;5075841;28;20473;-78
2022/08/05 03:34:45;;;;;;;1.45;0.77;;;;;;;;;;5075273;28;20047;-78
2022/08/05 03:37:13;;;;;;;1.02;0.60;;;;;;;;;;5075617;28;20025;-81
2022/08/05 03:39:56;;;;;;;1.30;0.80;;;;;;;;;;5054023;28;20240;-77
2022/08/05 03:42:24;;;;;;;2.03;1.80;;;;;;;;;;5074770;28;20067;-78
2022/08/05 03:44:50;;;;;;;1.40;0.93;;;;;;;;;;5078777;28;20046;-78
2022/08/05 03:47:15;;;;;;;2.55;1.67;;;;;;;;;;5074541;28;20441;-78
2022/08/05 03:49:45;;;;;;;0.88;0.63;;;;;;;;;;5082031;28;20694;-76
2022/08/05 03:52:18;;;;;;;0.90;0.85;;;;;;;;;;5073711;28;20028;-78
2022/08/05 03:54:56;;;;;;;2.85;1.35;;;;;;;;;;5079818;28;20024;-77
2022/08/05 03:57:24;;;;;;;2.65;1.02;;;;;;;;;;5065002;28;20028;-78
2022/08/05 03:59:56;;;;;;;1.88;0.93;;;;;;;;;;5074836;28;20043;-78
2022/08/05 04:02:25;;;;;;;1.30;1.10;;;;;;;;;;5071179;28;20020;-77
2022/08/05 04:04:51;;;;;;;2.63;1.27;;;;;;;;;;5057608;28;20032;-79
2022/08/05 04:07:19;;;;;;;2.80;1.33;;;;;;;;;;5075854;28;20020;-78
2022/08/05 04:09:44;;;;;;;2.70;1.25;;;;;;;;;;5072764;28;20028;-79
2022/08/05 04:12:09;;;;;;;1.38;0.68;;;;;;;;;;5063375;28;20024;-80
2022/08/05 04:14:35;;;;;;;1.90;0.82;;;;;;;;;;5080047;28;20055;-80
2022/08/05 04:17:00;;;;;;;7.13;1.52;;;;;;;;;;5080388;28;20408;-80
2022/08/05 04:19:27;;;;;;;1.42;0.85;;;;;;;;;;5086781;28;20051;-79
2022/08/05 04:21:52;;;;;;;1.15;0.85;;;;;;;;;;5078695;28;20462;-80
2022/08/05 04:24:18;;;;;;;1.85;1.25;;;;;;;;;;5084813;28;20024;-79
2022/08/05 04:26:43;;;;;;;6.13;1.83;;;;;;;;;;5074835;28;20465;-80
2022/08/05 04:29:08;;;;;;;2.67;1.17;;;;;;;;;;5077301;28;20036;-81
2022/08/05 04:31:34;;;;;;;1.35;1.08;;;;;;;;;;5071948;28;20024;-81
2022/08/05 04:34:01;;;;;;;3.22;1.83;;;;;;;;;;5073839;28;20036;-81
2022/08/05 04:36:27;;;;;;;1.48;1.35;;;;;;;;;;5081382;28;20020;-79
2022/08/05 04:38:56;;;;;;;0.95;0.88;;;;;;;;;;5075564;28;20082;-81
2022/08/05 04:41:21;;;;;;;3.50;1.95;;;;;;;;;;5077672;28;20070;-80
2022/08/05 04:43:47;;;;;;;1.77;1.17;;;;;;;;;;5073302;28;20033;-80
2022/08/05 04:46:12;;;;;;;1.33;1.00;;;;;;;;;;5071585;28;20025;-81
2022/08/05 04:48:40;;;;;;;3.03;1.13;;;;;;;;;;5072726;28;20455;-82
2022/08/05 04:51:05;;;;;;;2.00;1.63;;;;;;;;;;5068394;28;20939;-82
2022/08/05 04:53:30;;;;;;;2.40;1.35;;;;;;;;;;5076703;28;20134;-82
2022/08/05 04:55:56;;;;;;;2.40;1.38;;;;;;;;;;5073552;28;20028;-82
2022/08/05 04:58:23;;;;;;;2.40;1.42;;;;;;;;;;5074494;28;20035;-81
2022/08/05 05:00:49;;;;;;;3.47;1.83;;;;;;;;;;5074872;28;20020;-82
2022/08/05 05:03:15;;;;;;;2.58;1.60;;;;;;;;;;5082794;28;20031;-82
2022/08/05 05:05:42;;;;;;;1.35;1.00;;;;;;;;;;5082175;28;20161;-82
2022/08/05 05:08:08;;;;;;;7.93;2.00;;;;;;;;;;5072454;28;20039;-81
2022/08/05 05:10:45;;;;;;;2.67;1.67;;;;;;;;;;5076014;28;20426;-80
2022/08/05 05:13:12;;;;;;;6.43;2.13;;;;;;;;;;5072634;28;20036;-84
2022/08/05 05:15:40;;;;;;;2.42;1.52;;;;;;;;;;5084973;28;20024;-88
2022/08/05 05:18:06;;;;;;;3.38;2.70;;;;;;;;;;5082877;28;20032;-87
2022/08/05 05:20:32;;;;;;;3.08;1.73;;;;;;;;;;5064995;28;20434;-88
2022/08/05 05:22:59;;;;;;;5.38;1.83;;;;;;;;;;5077078;28;20051;-88
2022/08/05 05:25:25;;;;;;;2.80;1.88;;;;;;;;;;5082825;28;20024;-88
2022/08/05 05:27:54;;;;;;;2.20;2.00;;;;;;;;;;5073343;28;20516;-87
2022/08/05 05:30:22;;;;;;;3.28;2.08;;;;;;;;;;5059019;28;20064;-87
2022/08/05 05:32:50;;;;;;;1.65;1.38;;;;;;;;;;5071417;28;20034;-86
2022/08/05 05:35:15;;;;;;;2.45;1.95;;;;;;;;;;5077428;28;20047;-84
2022/08/05 05:37:47;;;;;;;4.93;1.88;;;;;;;;;;5077070;28;20028;-86
2022/08/05 05:40:19;;;;;;;4.53;3.13;;;;;;;;;;5074092;28;20035;-84
2022/08/05 05:42:45;;;;;;;3.88;2.30;;;;;;;;;;5080681;28;20369;-86
2022/08/05 05:45:11;;;;;;;5.43;2.45;;;;;;;;;;5074628;28;20048;-85
2022/08/05 05:47:39;;;;;;;4.68;1.73;;;;;;;;;;5080591;28;20488;-86
2022/08/05 05:50:08;;;;;;;4.97;2.88;;;;;;;;;;5080044;28;20066;-84
2022/08/05 05:52:34;;;;;;;3.75;1.90;;;;;;;;;;5084437;28;20020;-87
2022/08/05 05:55:03;;;;;;;3.53;2.10;;;;;;;;;;5077070;28;20104;-83
2022/08/05 05:57:29;;;;;;;4.32;2.75;;;;;;;;;;5063533;28;20028;-82
2022/08/05 05:59:57;;;;;;;3.53;1.80;;;;;;;;;;5084481;28;20024;-82
2022/08/05 06:02:50;;;;;;;4.03;2.63;;;;;;;;;;5073416;28;20021;-85
2022/08/05 06:05:17;;;;;;;4.97;2.72;;;;;;;;;;5070063;28;20071;-84
2022/08/05 06:07:43;;;;;;;2.95;1.50;;;;;;;;;;5082404;28;20031;-84
2022/08/05 06:10:09;;;;;;;3.17;2.15;;;;;;;;;;5073513;28;20028;-82
2022/08/05 06:12:35;;;;;;;12.05;3.38;;;;;;;;;;5081564;28;20024;-84
2022/08/05 06:15:04;;;;;;;4.35;2.47;;;;;;;;;;5082176;28;20032;-84
2022/08/05 06:17:36;;;;;;;5.13;1.92;;;;;;;;;;5070640;28;20039;-86
2022/08/05 06:20:08;;;;;;;6.18;3.63;;;;;;;;;;5066049;28;20028;-86
2022/08/05 06:22:39;;;;;;;5.55;3.13;;;;;;;;;;5064759;28;20062;-85
2022/08/05 06:25:07;;;;;;;6.97;3.05;;;;;;;;;;5065811;28;20031;-83
2022/08/05 06:27:33;;;;;;;9.02;3.78;;;;;;;;;;5083807;28;20066;-84
2022/08/05 06:29:59;;;;;;;5.57;3.28;;;;;;;;;;5077552;28;20402;-89
2022/08/05 06:32:24;;;;;;;5.35;3.15;;;;;;;;;;5079798;28;20101;-84
2022/08/05 06:34:49;;;;;;;4.63;2.67;;;;;;;;;;5078204;28;20024;-79
2022/08/05 06:37:17;;;;;;;5.43;3.08;;;;;;;;;;5079544;28;20346;-81
2022/08/05 06:39:42;;;;;;;5.63;3.92;;;;;;;;;;5085918;28;20083;-84
2022/08/05 06:42:08;;;;;;;5.35;2.25;;;;;;;;;;5060246;28;20093;-85
2022/08/05 06:44:33;;;;;;;3.50;2.65;;;;;;;;;;5068278;28;20028;-84
2022/08/05 06:47:01;;;;;;;3.90;2.42;;;;;;;;;;5060334;28;20076;-81
2022/08/05 06:49:26;;;;;;;4.15;2.63;;;;;;;;;;5076589;28;20028;-80
2022/08/05 06:51:54;;;;;;;5.43;3.03;;;;;;;;;;5079526;28;20017;-85
2022/08/05 06:54:21;;;;;;;3.08;2.50;;;;;;;;;;5064736;28;20024;-82
2022/08/05 06:56:47;;;;;;;5.45;2.75;;;;;;;;;;5075000;28;20032;-81
2022/08/05 06:59:14;;;;;;;3.38;2.47;;;;;;;;;;5096615;28;20046;-84
2022/08/05 07:01:40;;;;;;;3.00;2.10;;;;;;;;;;5077023;28;20028;-84
2022/08/05 07:04:05;;;;;;;5.18;2.72;;;;;;;;;;5082752;28;20024;-83
2022/08/05 07:06:31;;;;;;;3.35;2.58;;;;;;;;;;5077407;28;20039;-83
2022/08/05 07:08:59;;;;;;;3.22;2.20;;;;;;;;;;5093203;28;20404;-82
2022/08/05 07:11:27;;;;;;;3.40;2.03;;;;;;;;;;5096396;28;20028;-82
2022/08/05 07:16:50;;;;;;;3.30;1.88;;;;;;;;;;5045245;28;20591;-84
2022/08/05 07:19:20;;;;;;;3.80;2.03;;;;;;;;;;5090838;28;20103;-83
2022/08/05 07:21:46;;;;;;;3.40;1.88;;;;;;;;;;5084444;28;20081;-84
2022/08/05 07:24:12;;;;;;;3.65;2.50;;;;;;;;;;5082477;28;20024;-85
2022/08/05 07:26:37;;;;;;;2.67;2.00;;;;;;;;;;5095218;28;20059;-82
2022/08/05 07:29:02;;;;;;;4.35;2.70;;;;;;;;;;5074085;28;20036;-83
2022/08/05 07:31:28;;;;;;;3.80;2.30;;;;;;;;;;5076708;28;20029;-83
2022/08/05 07:33:53;;;;;;;10.70;2.78;;;;;;;;;;5078436;28;20038;-84
2022/08/05 07:36:21;;;;;;;3.75;2.75;;;;;;;;;;5091249;28;20111;-85
2022/08/05 07:38:46;;;;;;;3.55;2.42;;;;;;;;;;5084049;28;20019;-84
2022/08/05 07:41:17;;;;;;;7.03;2.08;;;;;;;;;;5074615;28;20029;-84
2022/08/05 07:43:42;;;;;;;3.13;2.30;;;;;;;;;;5075272;28;20024;-83
2022/08/05 07:46:08;;;;;;;2.65;1.67;;;;;;;;;;5086205;28;20024;-85
2022/08/05 07:48:33;;;;;;;4.57;1.48;;;;;;;;;;5085617;28;20024;-84
2022/08/05 07:50:59;;;;;;;2.92;1.88;;;;;;;;;;5087310;28;20458;-85
2022/08/05 07:53:24;;;;;;;3.17;1.60;;;;;;;;;;5094907;28;20342;-84
2022/08/05 07:55:52;;;;;;;3.83;1.83;;;;;;;;;;5089705;28;20114;-86
2022/08/05 07:58:17;;;;;;;3.33;2.22;;;;;;;;;;5091191;28;20366;-86
2022/08/05 08:00:43;;;;;;;3.22;1.92;;;;;;;;;;5078172;28;20089;-85
2022/08/05 08:03:10;;;;;;;8.02;1.38;;;;;;;;;;5076191;28;20426;-86
2022/08/05 08:05:38;;;;;;;1.88;1.45;;;;;;;;;;5076145;28;20048;-85
2022/08/05 08:08:04;;;;;;;4.05;2.50;;;;;;;;;;5090804;28;20024;-82
2022/08/05 08:10:29;;;;;;;7.85;1.98;;;;;;;;;;5080257;28;20349;-86
2022/08/05 08:12:55;;;;;;;2.65;1.23;;;;;;;;;;5081408;28;20028;-87
2022/08/05 08:15:20;;;;;;;2.05;1.35;;;;;;;;;;5077723;28;20032;-85
2022/08/05 08:17:46;;;;;;;3.20;1.77;;;;;;;;;;5096291;28;20069;-84
2022/08/05 08:20:11;;;;;;;1.70;1.23;;;;;;;;;;5073828;28;20021;-80
2022/08/05 08:22:42;;;;;;;1.42;1.27;;;;;;;;;;5082394;28;20035;-85
2022/08/05 08:25:10;;;;;;;1.77;1.17;;;;;;;;;;5057767;28;20021;-85
2022/08/05 08:27:36;;;;;;;2.42;1.35;;;;;;;;;;5077616;28;20037;-86
2022/08/05 08:30:01;;;;;;;4.68;1.25;;;;;;;;;;5093156;28;20024;-84
2022/08/05 08:32:26;;;;;;;3.70;1.05;;;;;;;;;;5077984;28;20086;-84
2022/08/05 08:34:52;;;;;;;1.63;0.98;;;;;;;;;;5076572;28;20478;-83
2022/08/05 08:37:20;;;;;;;5.40;1.40;;;;;;;;;;5076411;28;20456;-84
2022/08/05 08:39:47;;;;;;;1.40;0.95;;;;;;;;;;5073846;28;20430;-84
2022/08/05 08:42:13;;;;;;;3.25;0.85;;;;;;;;;;5090459;28;20093;-84
2022/08/05 08:47:25;;;;;;;2.38;1.10;;;;;;;;;;5102331;28;20032;-84
2022/08/05 08:50:14;;;;;;;3.70;0.90;;;;;;;;;;5092930;28;20023;-86
2022/08/05 08:53:01;;;;;;;1.02;0.73;;;;;;;;;;5098874;28;20028;-84
2022/08/05 08:55:44;;;;;;;1.23;0.80;;;;;;;;;;5091041;28;20027;-86
2022/08/05 08:58:14;;;;;;;1.08;1.00;;;;;;;;;;5085034;28;20029;-85
2022/08/05 09:01:10;;;;;;;4.15;1.75;;;;;;;;;;5095463;28;20031;-85
2022/08/05 09:03:40;;;;;;;3.65;0.98;;;;;;;;;;5076123;28;20020;-87
2022/08/05 09:06:07;;;;;;;4.97;0.70;;;;;;;;;;5076107;28;20027;-88
2022/08/05 09:08:35;;;;;;;1.38;1.13;;;;;;;;;;5079894;28;20054;-83
2022/08/05 09:11:03;;;;;;;2.08;0.88;;;;;;;;;;5070464;28;20043;-85
2022/08/05 09:13:32;;;;;;;1.10;1.00;;;;;;;;;;5080416;28;20021;-85
2022/08/05 09:16:52;;;;;;;2.08;0.77;;;;;;;;;;5081246;28;20032;-86
2022/08/05 09:19:17;;;;;;;0.95;0.80;;;;;;;;;;5068197;28;20314;-84
2022/08/05 09:21:45;;;;;;;0.93;0.80;;;;;;;;;;5082466;28;20073;-81
2022/08/05 09:24:13;;;;;;;4.38;1.65;;;;;;;;;;5073413;28;20043;-88
2022/08/05 09:26:38;;;;;;;1.42;1.10;;;;;;;;;;5079467;28;20025;-83
2022/08/05 09:29:10;;;;;;;0.80;0.55;;;;;;;;;;5078189;28;20028;-84
2022/08/05 09:31:38;;;;;;;2.60;1.10;;;;;;;;;;5070894;28;20024;-84
2022/08/05 09:34:06;;;;;;;1.70;1.10;;;;;;;;;;5075027;28;20040;-87
2022/08/05 09:36:44;;;;;;;0.85;0.65;;;;;;;;;;5075340;28;20047;-80
2022/08/05 09:39:19;;;;;;;0.65;0.55;;;;;;;;;;5081461;28;20315;-84
2022/08/05 09:41:58;;;;;;;2.72;1.23;;;;;;;;;;5074108;28;20093;-89
2022/08/05 09:44:42;;;;;;;0.85;0.70;;;;;;;;;;5075157;28;20035;-83
2022/08/05 09:47:28;;;;;;;0.55;0.55;;;;;;;;;;5070921;28;20341;-81
2022/08/05 09:49:55;;;;;;;4.90;0.95;;;;;;;;;;5075777;28;20028;-89
2022/08/05 09:52:34;;;;;;;0.45;0.25;;;;;;;;;;5090319;28;20024;-88
2022/08/05 09:55:04;;;;;;;0.57;0.43;;;;;;;;;;5063532;28;20037;-84
2022/08/05 09:57:40;;;;;;;1.02;0.85;;;;;;;;;;5072989;28;20060;-88
2022/08/05 10:00:12;;;;;;;2.83;0.73;;;;;;;;;;5074501;28;20030;-86
2022/08/05 10:02:45;;;;;;;2.67;0.55;;;;;;;;;;5081396;28;20051;-86
2022/08/05 10:05:13;;;;;;;0.60;0.60;;;;;;;;;;5076983;28;20036;-81
2022/08/05 10:07:52;;;;;;;1.70;1.60;;;;;;;;;;5065548;28;20039;-87
2022/08/05 10:10:22;;;;;;;1.08;0.80;;;;;;;;;;5074569;28;20036;-87
2022/08/05 10:12:52;;;;;;;0.90;0.80;;;;;;;;;;5080898;28;20086;-84
2022/08/05 10:15:27;;;;;;;1.77;0.60;;;;;;;;;;5077370;28;20017;-90
2022/08/05 10:18:15;;;;;;;1.55;1.17;;;;;;;;;;5076392;28;20476;-85
2022/08/05 10:20:52;;;;;;;2.45;1.35;;;;;;;;;;5060741;28;20029;-86
2022/08/05 10:23:19;;;;;;;1.55;1.02;;;;;;;;;;5068745;28;20025;-89
2022/08/05 10:25:45;;;;;;;0.38;0.35;;;;;;;;;;5066299;28;20049;-83
2022/08/05 10:28:10;;;;;;;0.55;0.50;;;;;;;;;;5075081;28;20044;-84
2022/08/05 10:30:39;;;;;;;3.33;1.42;;;;;;;;;;5078439;28;20585;-85
2022/08/05 10:33:05;;;;;;;1.40;0.73;;;;;;;;;;5086976;28;20047;-87
2022/08/05 10:35:35;;;;;;;0.88;0.68;;;;;;;;;;5092335;28;20028;-86
2022/08/05 10:38:01;;;;;;;0.95;0.52;;;;;;;;;;5074226;28;20032;-82
2022/08/05 10:41:00;;;;;;;1.17;0.90;;;;;;;;;;5075286;28;20032;-85
2022/08/05 10:43:45;;;;;;;0.60;0.55;;;;;;;;;;5083680;28;20024;-90
2022/08/05 10:46:12;;;;;;;1.33;0.68;;;;;;;;;;5074383;28;20086;-87
2022/08/05 10:48:58;;;;;;;0.55;0.52;;;;;;;;;;5082888;28;20025;-89
2022/08/05 10:51:24;;;;;;;0.60;0.60;;;;;;;;;;5088207;28;20031;-90
2022/08/05 10:53:52;;;;;;;0.90;0.55;;;;;;;;;;5082659;28;20051;-88
2022/08/05 10:56:23;;;;;;;0.25;0.25;;;;;;;;;;5080922;28;20099;-88
2022/08/05 10:58:56;;;;;;;0.95;0.82;;;;;;;;;;5082695;28;20025;-87
2022/08/05 11:01:35;;;;;;;0.38;0.32;;;;;;;;;;5080141;28;20028;-85
2022/08/05 11:04:01;;;;;;;0.75;0.70;;;;;;;;;;5074013;28;20033;-85
2022/08/05 11:06:27;;;;;;;4.32;0.98;;;;;;;;;;5076294;28;20367;-87
2022/08/05 11:09:17;;;;;;;0.50;0.50;;;;;;;;;;5079784;28;20024;-82
2022/08/05 11:11:45;;;;;;;0.35;0.30;;;;;;;;;;5066269;28;20020;-81
2022/08/05 11:14:11;;;;;;;1.45;0.52;;;;;;;;;;5077722;28;20032;-84
2022/08/05 11:16:37;;;;;;;2.38;0.82;;;;;;;;;;5083855;28;20039;-84
2022/08/05 11:19:45;;;;;;;2.45;0.80;;;;;;;;;;5065744;28;20361;-84
2022/08/05 11:22:51;;;;;;;0.20;0.20;;;;;;;;;;5028396;28;20126;-82
2022/08/05 11:25:32;;;;;;;2.05;1.15;;;;;;;;;;5074203;28;20441;-83
2022/08/05 11:28:10;;;;;;;2.47;0.95;;;;;;;;;;5077609;28;20078;-82
2022/08/05 11:30:57;;;;;;;0.45;0.28;;;;;;;;;;5081728;28;20028;-80
2022/08/05 11:33:26;;;;;;;0.22;0.22;;;;;;;;;;5074049;28;20015;-85
2022/08/05 11:35:52;;;;;;;0.90;0.63;;;;;;;;;;5075458;28;20052;-81
2022/08/05 11:38:18;;;;;;;1.05;0.60;;;;;;;;;;5069583;28;20021;-83
2022/08/05 11:41:23;;;;;;;0.22;0.22;;;;;;;;;;5074280;28;20025;-81
2022/08/05 11:43:54;;;;;;;0.43;0.30;;;;;;;;;;5076295;28;20035;-82
2022/08/05 11:46:27;;;;;;;0.20;0.20;;;;;;;;;;5070314;28;20028;-84
2022/08/05 11:49:03;;;;;;;0.20;0.20;;;;;;;;;;5065311;28;20025;-85
2022/08/05 11:51:29;;;;;;;0.68;0.20;;;;;;;;;;5071527;28;20546;-83
2022/08/05 11:53:55;;;;;;;0.45;0.35;;;;;;;;;;5077670;28;20111;-86
2022/08/05 11:56:21;;;;;;;0.40;0.35;;;;;;;;;;5071917;28;20031;-84
2022/08/05 11:58:50;;;;;;;1.58;0.85;;;;;;;;;;5065406;28;20362;-85
2022/08/05 12:01:56;;;;;;;0.30;0.30;;;;;;;;;;5070820;28;20063;-81
2022/08/05 12:04:58;;;;;;;0.93;0.57;;;;;;;;;;5076511;28;20389;-80
2022/08/05 12:14:54;;;;;;;0.77;0.60;;;;;;;;;;5004869;28;20076;-82
2022/08/05 12:17:52;;;;;;;0.55;0.43;;;;;;;;;;4993174;28;20042;-83
2022/08/05 12:21:29;;;;;;;1.15;0.82;;;;;;;;;;5001674;28;20041;-84
2022/08/05 12:35:20;;;;;;;1.75;0.75;;;;;;;;;;4875408;29;20578;-84
2022/08/05 12:37:46;;;;;;;0.63;0.63;;;;;;;;;;4882441;29;20048;-84
2022/08/05 12:40:26;;;;;;;0.70;0.70;;;;;;;;;;4930744;29;20105;-82
2022/08/05 12:43:27;;;;;;;0.77;0.77;;;;;;;;;;4952645;29;20027;-82
2022/08/05 12:45:55;;;;;;;0.52;0.52;;;;;;;;;;4953548;28;20451;-83
2022/08/05 12:48:22;;;;;;;1.02;0.82;;;;;;;;;;4953139;29;20042;-85
2022/08/05 12:51:09;;;;;;;0.63;0.63;;;;;;;;;;4918030;29;20167;-82
2022/08/05 12:53:40;;;;;;;1.08;0.98;;;;;;;;;;4952731;29;20113;-86
2022/08/05 12:56:21;;;;;;;0.90;0.90;;;;;;;;;;4930512;29;20070;-80
2022/08/05 12:59:13;;;;;;;1.00;0.90;;;;;;;;;;4933712;29;20041;-84
2022/08/05 13:01:39;;;;;;;0.98;0.85;;;;;;;;;;4948489;28;22098;-82
2022/08/05 13:04:05;;;;;;;0.60;0.60;;;;;;;;;;4948768;28;20165;-82
2022/08/05 13:06:30;;;;;;;0.90;0.73;;;;;;;;;;4983380;28;20122;-83
2022/08/05 13:08:59;;;;;;;1.38;1.27;;;;;;;;;;4989088;28;20503;-81
2022/08/05 13:11:31;;;;;;;2.20;1.60;;;;;;;;;;5055761;28;20060;-82
2022/08/05 13:13:56;;;;;;;1.58;1.23;;;;;;;;;;5064224;28;20024;-83
2022/08/05 13:16:22;;;;;;;0.88;0.88;;;;;;;;;;5069463;28;20391;-84
2022/08/05 13:18:55;;;;;;;2.45;1.60;;;;;;;;;;5066702;28;20107;-84
2022/08/05 13:21:59;;;;;;;1.77;1.38;;;;;;;;;;5069559;28;20052;-83
2022/08/05 13:24:42;;;;;;;0.75;0.75;;;;;;;;;;5062593;28;20035;-85
2022/08/05 13:27:11;;;;;;;1.00;0.90;;;;;;;;;;5029014;28;20112;-85
2022/08/05 13:29:36;;;;;;;0.88;0.80;;;;;;;;;;5049816;28;20063;-81
2022/08/05 13:32:09;;;;;;;1.40;0.90;;;;;;;;;;5066855;28;20032;-83
2022/08/05 13:34:59;;;;;;;1.25;1.08;;;;;;;;;;5064764;28;20032;-81
2022/08/05 13:37:42;;;;;;;1.33;1.10;;;;;;;;;;5068395;28;20021;-86
2022/08/05 14:00:24;;;;;;;0.82;0.80;;;;;;;;;;5084377;28;20085;-85
2022/08/05 14:02:49;;;;;;;1.75;0.43;;;;;;;;;;5087792;28;20051;-86
2022/08/05 14:05:15;;;;;;;1.05;0.40;;;;;;;;;;5085465;28;20028;-84
2022/08/05 14:07:44;;;;;;;2.00;0.88;;;;;;;;;;5065774;28;20039;-84
2022/08/05 14:10:09;;;;;;;0.55;0.47;;;;;;;;;;5075162;28;20047;-88
2022/08/05 14:12:39;;;;;;;0.88;0.50;;;;;;;;;;5086835;28;20099;-89
2022/08/05 14:15:05;;;;;;;0.20;0.10;;;;;;;;;;5070902;28;20028;-87
2022/08/05 14:17:31;;;;;;;0.30;0.30;;;;;;;;;;5088816;28;20089;-86
2022/08/05 14:19:56;;;;;;;9.55;0.52;;;;;;;;;;5094893;28;20027;-86
2022/08/05 14:22:21;;;;;;;0.45;0.45;;;;;;;;;;5074316;28;20525;-87
2022/08/05 14:24:47;;;;;;;0.30;0.30;;;;;;;;;;5053503;28;20027;-87
2022/08/05 14:27:12;;;;;;;0.20;0.20;;;;;;;;;;5087531;28;20077;-85
2022/08/05 14:29:38;;;;;;;0.80;0.40;;;;;;;;;;5071259;28;20370;-82
2022/08/05 14:32:04;;;;;;;0.45;0.22;;;;;;;;;;5089447;28;20103;-86
2022/08/05 14:34:29;;;;;;;0.60;0.35;;;;;;;;;;5084427;28;20032;-83
2022/08/05 14:37:26;;;;;;;0.70;0.50;;;;;;;;;;5074461;28;20032;-85
2022/08/05 14:39:53;;;;;;;0.32;0.32;;;;;;;;;;5090757;28;20021;-86
2022/08/05 14:42:23;;;;;;;0.13;0.13;;;;;;;;;;5073126;28;20527;-86
2022/08/05 14:44:51;;;;;;;0.75;0.50;;;;;;;;;;5068819;28;20027;-87
2022/08/05 14:47:17;;;;;;;0.93;0.43;;;;;;;;;;5089788;28;20027;-86
2022/08/05 14:49:42;;;;;;;0.50;0.30;;;;;;;;;;5082699;28;20013;-83
2022/08/05 14:52:08;;;;;;;0.50;0.47;;;;;;;;;;5085795;28;20024;-82
2022/08/05 14:54:35;;;;;;;0.55;0.43;;;;;;;;;;5054924;28;20028;-84
2022/08/05 14:57:05;;;;;;;0.73;0.57;;;;;;;;;;5084170;28;20098;-87
2022/08/05 14:59:31;;;;;;;0.30;0.30;;;;;;;;;;5072513;28;20038;-88
2022/08/05 15:01:56;;;;;;;0.55;0.20;;;;;;;;;;5070942;28;20032;-86
2022/08/05 15:04:22;;;;;;;1.08;0.28;;;;;;;;;;5086013;28;20066;-85
2022/08/05 15:06:50;;;;;;;0.22;0.22;;;;;;;;;;5084169;28;20043;-84
2022/08/05 15:09:40;;;;;;;0.50;0.50;;;;;;;;;;5064200;28;20070;-85
2022/08/05 15:12:46;;;;;;;1.23;0.35;;;;;;;;;;5069787;28;20567;-88
2022/08/05 15:15:12;;;;;;;0.38;0.38;;;;;;;;;;5031710;28;20115;-88
2022/08/05 15:17:37;;;;;;;1.95;0.32;;;;;;;;;;5064432;28;20122;-87
2022/08/05 15:20:03;;;;;;;0.38;0.17;;;;;;;;;;5085341;28;20086;-87
2022/08/05 15:22:28;;;;;;;0.17;0.10;;;;;;;;;;5069341;28;20457;-89
2022/08/05 15:24:57;;;;;;;0.40;0.40;;;;;;;;;;5073538;28;20111;-89
2022/08/05 15:27:23;;;;;;;0.50;0.40;;;;;;;;;;5086949;28;20032;-86
2022/08/05 15:29:56;;;;;;;0.20;0.20;;;;;;;;;;5071693;28;20032;-88
2022/08/05 15:32:21;;;;;;;0.60;0.40;;;;;;;;;;5076818;28;20883;-86
2022/08/05 15:34:46;;;;;;;6.18;0.32;;;;;;;;;;5082851;28;20035;-83
2022/08/05 15:37:12;;;;;;;0.20;0.20;;;;;;;;;;5084835;28;20073;-89
2022/08/05 15:39:37;;;;;;;0.10;0.10;;;;;;;;;;5065678;28;20031;-82
2022/08/05 15:42:05;;;;;;;0.45;0.20;;;;;;;;;;5068998;28;20576;-87
2022/08/05 15:44:40;;;;;;;0.35;0.28;;;;;;;;;;5086646;28;20020;-91
2022/08/05 15:47:06;;;;;;;0.10;0.10;;;;;;;;;;5061155;28;20153;-83